createdAt,value
2023-04-08T00:00:37.255Z,1022.30
2023-04-08T00:01:41.488Z,1022.33
2023-04-08T00:02:45.795Z,1022.31
2023-04-08T00:03:50.104Z,1022.35
2023-04-08T00:04:54.114Z,1022.34
2023-04-08T00:05:58.307Z,1022.34
2023-04-08T00:07:02.460Z,1022.33
2023-04-08T00:08:06.615Z,1022.36
2023-04-08T00:09:10.850Z,1022.32
2023-04-08T00:10:15.030Z,1022.36
2023-04-08T00:11:19.303Z,1022.36
2023-04-08T00:12:23.507Z,1022.38
2023-04-08T00:13:27.779Z,1022.39
2023-04-08T00:14:31.967Z,1022.35
2023-04-08T00:15:36.273Z,1022.34
2023-04-08T00:16:40.549Z,1022.35
2023-04-08T00:17:47.803Z,1022.35
2023-04-08T00:18:51.160Z,1022.35
2023-04-08T00:19:55.258Z,1022.36
2023-04-08T00:20:59.446Z,1022.36
2023-04-08T00:22:03.606Z,1022.39
2023-04-08T00:23:07.700Z,1022.40
2023-04-08T00:24:11.980Z,1022.39
2023-04-08T00:25:16.250Z,1022.38
2023-04-08T00:26:20.509Z,1022.39
2023-04-08T00:27:24.713Z,1022.37
2023-04-08T00:28:28.915Z,1022.35
2023-04-08T00:29:33.140Z,1022.38
2023-04-08T00:30:37.479Z,1022.38
2023-04-08T00:31:41.549Z,1022.37
2023-04-08T00:32:45.866Z,1022.36
2023-04-08T00:33:50.037Z,1022.36
2023-04-08T00:34:54.222Z,1022.36
2023-04-08T00:36:04.517Z,1022.36
2023-04-08T00:37:07.347Z,1022.34
2023-04-08T00:38:11.484Z,1022.32
2023-04-08T00:39:15.578Z,1022.28
2023-04-08T00:40:19.769Z,1022.29
2023-04-08T00:41:24.038Z,1022.26
2023-04-08T00:42:28.379Z,1022.28
2023-04-08T00:43:32.418Z,1022.29
2023-04-08T00:44:36.671Z,1022.28
2023-04-08T00:45:40.925Z,1022.30
2023-04-08T00:46:45.147Z,1022.32
2023-04-08T00:47:49.393Z,1022.33
2023-04-08T00:48:53.688Z,1022.32
2023-04-08T00:49:57.920Z,1022.31
2023-04-08T00:51:01.946Z,1022.33
2023-04-08T00:52:06.105Z,1022.33
2023-04-08T00:53:10.582Z,1022.34
2023-04-08T00:54:14.700Z,1022.34
2023-04-08T00:55:18.722Z,1022.33
2023-04-08T00:56:22.982Z,1022.32
2023-04-08T00:57:27.268Z,1022.34
2023-04-08T00:58:31.504Z,1022.32
2023-04-08T00:59:35.697Z,1022.30
2023-04-08T01:00:39.823Z,1022.32
2023-04-08T01:01:44.187Z,1022.33
2023-04-08T01:02:48.461Z,1022.32
2023-04-08T01:03:52.827Z,1022.33
2023-04-08T01:04:56.804Z,1022.35
2023-04-08T01:06:01.055Z,1022.33
2023-04-08T01:07:05.311Z,1022.33
2023-04-08T01:08:09.468Z,1022.33
2023-04-08T01:09:13.698Z,1022.36
2023-04-08T01:10:17.971Z,1022.38
2023-04-08T01:11:22.132Z,1022.36
2023-04-08T01:12:26.330Z,1022.37
2023-04-08T01:13:30.693Z,1022.36
2023-04-08T01:14:34.881Z,1022.37
2023-04-08T01:15:39.137Z,1022.36
2023-04-08T01:16:43.267Z,1022.37
2023-04-08T01:17:47.583Z,1022.35
2023-04-08T01:18:51.910Z,1022.34
2023-04-08T01:19:55.917Z,1022.35
2023-04-08T01:21:00.162Z,1022.35
2023-04-08T01:22:04.337Z,1022.36
2023-04-08T01:23:08.460Z,1022.36
2023-04-08T01:24:12.725Z,1022.33
2023-04-08T01:25:16.842Z,1022.34
2023-04-08T01:26:21.004Z,1022.35
2023-04-08T01:27:25.239Z,1022.35
2023-04-08T01:28:29.473Z,1022.36
2023-04-08T01:29:33.626Z,1022.36
2023-04-08T01:30:37.862Z,1022.36
2023-04-08T01:31:42.123Z,1022.38
2023-04-08T01:32:46.275Z,1022.37
2023-04-08T01:33:50.484Z,1022.38
2023-04-08T01:34:54.752Z,1022.36
2023-04-08T01:35:59.051Z,1022.38
2023-04-08T01:37:03.165Z,1022.39
2023-04-08T01:38:07.466Z,1022.39
2023-04-08T01:39:11.564Z,1022.39
2023-04-08T01:40:15.857Z,1022.39
2023-04-08T01:41:20.076Z,1022.40
2023-04-08T01:42:24.343Z,1022.42
2023-04-08T01:43:28.564Z,1022.44
2023-04-08T01:44:32.748Z,1022.48
2023-04-08T01:45:37.049Z,1022.46
2023-04-08T01:46:41.255Z,1022.47
2023-04-08T01:47:45.447Z,1022.44
2023-04-08T01:48:50.150Z,1022.43
2023-04-08T01:49:53.823Z,1022.45
2023-04-08T01:50:58.025Z,1022.43
2023-04-08T01:52:02.329Z,1022.45
2023-04-08T01:53:06.480Z,1022.42
2023-04-08T01:54:10.787Z,1022.43
2023-04-08T01:55:14.945Z,1022.44
2023-04-08T01:56:19.056Z,1022.45
2023-04-08T01:57:37.497Z,1022.43
2023-04-08T01:58:40.690Z,1022.42
2023-04-08T01:59:44.821Z,1022.43
2023-04-08T02:00:49.098Z,1022.44
2023-04-08T02:01:53.326Z,1022.44
2023-04-08T02:02:57.806Z,1022.44
2023-04-08T02:04:01.896Z,1022.45
2023-04-08T02:05:06.048Z,1022.46
2023-04-08T02:06:10.305Z,1022.46
2023-04-08T02:07:14.386Z,1022.48
2023-04-08T02:08:18.633Z,1022.49
2023-04-08T02:09:22.906Z,1022.47
2023-04-08T02:10:27.019Z,1022.49
2023-04-08T02:11:31.236Z,1022.49
2023-04-08T02:12:35.420Z,1022.51
2023-04-08T02:13:39.587Z,1022.50
2023-04-08T02:14:43.881Z,1022.55
2023-04-08T02:15:48.141Z,1022.53
2023-04-08T02:16:52.328Z,1022.56
2023-04-08T02:17:56.515Z,1022.54
2023-04-08T02:19:00.673Z,1022.52
2023-04-08T02:20:04.925Z,1022.54
2023-04-08T02:21:09.139Z,1022.53
2023-04-08T02:22:13.367Z,1022.53
2023-04-08T02:23:17.648Z,1022.56
2023-04-08T02:24:21.802Z,1022.56
2023-04-08T02:25:26.012Z,1022.57
2023-04-08T02:26:30.205Z,1022.60
2023-04-08T02:27:34.485Z,1022.62
2023-04-08T02:28:38.776Z,1022.60
2023-04-08T02:29:42.928Z,1022.60
2023-04-08T02:30:47.231Z,1022.60
2023-04-08T02:31:51.447Z,1022.60
2023-04-08T02:32:55.627Z,1022.61
2023-04-08T02:33:59.734Z,1022.64
2023-04-08T02:35:04.007Z,1022.66
2023-04-08T02:36:08.234Z,1022.68
2023-04-08T02:37:12.388Z,1022.70
2023-04-08T02:38:16.681Z,1022.70
2023-04-08T02:39:20.913Z,1022.69
2023-04-08T02:40:25.133Z,1022.70
2023-04-08T02:41:29.380Z,1022.70
2023-04-08T02:42:33.569Z,1022.72
2023-04-08T02:43:37.851Z,1022.73
2023-04-08T02:44:42.133Z,1022.74
2023-04-08T02:45:46.330Z,1022.73
2023-04-08T02:46:50.481Z,1022.73
2023-04-08T02:47:57.671Z,1022.76
2023-04-08T02:49:00.830Z,1022.76
2023-04-08T02:50:05.180Z,1022.75
2023-04-08T02:51:09.456Z,1022.76
2023-04-08T02:52:13.517Z,1022.75
2023-04-08T02:53:17.899Z,1022.74
2023-04-08T02:54:22.060Z,1022.73
2023-04-08T02:55:26.339Z,1022.72
2023-04-08T02:56:33.523Z,1022.74
2023-04-08T02:57:42.953Z,1022.74
2023-04-08T02:58:45.658Z,1022.72
2023-04-08T02:59:49.832Z,1022.72
2023-04-08T03:00:54.149Z,1022.71
2023-04-08T03:01:58.350Z,1022.73
2023-04-08T03:03:02.678Z,1022.71
2023-04-08T03:04:06.791Z,1022.71
2023-04-08T03:05:10.914Z,1022.74
2023-04-08T03:06:15.247Z,1022.74
2023-04-08T03:07:19.362Z,1022.75
2023-04-08T03:08:23.670Z,1022.77
2023-04-08T03:09:27.778Z,1022.78
2023-04-08T03:10:31.910Z,1022.80
2023-04-08T03:11:36.174Z,1022.81
2023-04-08T03:12:40.394Z,1022.81
2023-04-08T03:13:44.700Z,1022.79
2023-04-08T03:14:48.926Z,1022.79
2023-04-08T03:15:53.109Z,1022.80
2023-04-08T03:16:57.290Z,1022.80
2023-04-08T03:18:01.470Z,1022.80
2023-04-08T03:19:05.623Z,1022.80
2023-04-08T03:20:09.833Z,1022.81
2023-04-08T03:21:13.967Z,1022.79
2023-04-08T03:22:18.360Z,1022.78
2023-04-08T03:23:22.399Z,1022.81
2023-04-08T03:24:26.669Z,1022.83
2023-04-08T03:25:30.859Z,1022.84
2023-04-08T03:26:35.070Z,1022.88
2023-04-08T03:27:39.231Z,1022.87
2023-04-08T03:28:43.441Z,1022.89
2023-04-08T03:29:47.652Z,1022.91
2023-04-08T03:30:51.945Z,1022.93
2023-04-08T03:31:56.160Z,1022.93
2023-04-08T03:33:00.254Z,1022.94
2023-04-08T03:34:04.436Z,1022.97
2023-04-08T03:35:08.777Z,1022.95
2023-04-08T03:36:13.039Z,1022.96
2023-04-08T03:37:17.295Z,1022.95
2023-04-08T03:38:21.367Z,1022.96
2023-04-08T03:39:25.662Z,1022.98
2023-04-08T03:40:29.740Z,1022.96
2023-04-08T03:41:34.002Z,1022.97
2023-04-08T03:42:38.204Z,1022.98
2023-04-08T03:43:42.537Z,1023.00
2023-04-08T03:44:52.813Z,1023.01
2023-04-08T03:45:55.796Z,1023.01
2023-04-08T03:46:59.923Z,1023.00
2023-04-08T03:48:04.142Z,1023.01
2023-04-08T03:49:08.305Z,1023.05
2023-04-08T03:50:12.417Z,1023.04
2023-04-08T03:51:16.715Z,1023.06
2023-04-08T03:52:20.940Z,1023.07
2023-04-08T03:53:25.217Z,1023.07
2023-04-08T03:54:29.379Z,1023.08
2023-04-08T03:55:33.709Z,1023.08
2023-04-08T03:56:39.034Z,1023.09
2023-04-08T03:57:42.752Z,1023.10
2023-04-08T03:58:47.028Z,1023.12
2023-04-08T03:59:51.291Z,1023.11
2023-04-08T04:00:55.466Z,1023.13
2023-04-08T04:01:59.608Z,1023.15
2023-04-08T04:03:04.008Z,1023.16
2023-04-08T04:04:08.189Z,1023.14
2023-04-08T04:05:12.221Z,1023.14
2023-04-08T04:06:16.530Z,1023.16
2023-04-08T04:07:20.740Z,1023.17
2023-04-08T04:08:25.039Z,1023.17
2023-04-08T04:09:29.214Z,1023.18
2023-04-08T04:10:33.435Z,1023.19
2023-04-08T04:11:37.773Z,1023.19
2023-04-08T04:12:41.780Z,1023.20
2023-04-08T04:13:46.061Z,1023.21
2023-04-08T04:14:50.369Z,1023.21
2023-04-08T04:15:54.581Z,1023.24
2023-04-08T04:16:58.696Z,1023.24
2023-04-08T04:18:03.078Z,1023.26
2023-04-08T04:19:07.137Z,1023.28
2023-04-08T04:20:11.287Z,1023.26
2023-04-08T04:21:15.640Z,1023.26
2023-04-08T04:22:19.785Z,1023.26
2023-04-08T04:23:23.964Z,1023.25
2023-04-08T04:24:28.110Z,1023.27
2023-04-08T04:25:32.313Z,1023.26
2023-04-08T04:26:36.486Z,1023.27
2023-04-08T04:27:40.756Z,1023.26
2023-04-08T04:28:45.034Z,1023.30
2023-04-08T04:29:49.242Z,1023.27
2023-04-08T04:30:54.720Z,1023.29
2023-04-08T04:31:57.618Z,1023.29
2023-04-08T04:33:01.911Z,1023.29
2023-04-08T04:34:06.148Z,1023.29
2023-04-08T04:35:10.362Z,1023.30
2023-04-08T04:36:28.634Z,1023.28
2023-04-08T04:37:31.716Z,1023.30
2023-04-08T04:38:35.848Z,1023.31
2023-04-08T04:39:39.933Z,1023.33
2023-04-08T04:40:44.251Z,1023.30
2023-04-08T04:41:48.380Z,1023.31
2023-04-08T04:42:52.625Z,1023.32
2023-04-08T04:43:56.850Z,1023.34
2023-04-08T04:45:01.086Z,1023.35
2023-04-08T04:46:05.280Z,1023.37
2023-04-08T04:47:09.499Z,1023.39
2023-04-08T04:48:13.696Z,1023.40
2023-04-08T04:49:17.818Z,1023.44
2023-04-08T04:50:22.100Z,1023.47
2023-04-08T04:51:26.378Z,1023.46
2023-04-08T04:52:30.538Z,1023.46
2023-04-08T04:53:34.750Z,1023.47
2023-04-08T04:54:39.071Z,1023.46
2023-04-08T04:55:43.315Z,1023.47
2023-04-08T04:56:47.539Z,1023.49
2023-04-08T04:57:51.768Z,1023.47
2023-04-08T04:58:56.000Z,1023.52
2023-04-08T05:00:00.106Z,1023.52
2023-04-08T05:01:04.334Z,1023.53
2023-04-08T05:02:08.885Z,1023.53
2023-04-08T05:03:13.026Z,1023.55
2023-04-08T05:04:17.009Z,1023.54
2023-04-08T05:05:21.544Z,1023.56
2023-04-08T05:06:25.423Z,1023.58
2023-04-08T05:07:29.730Z,1023.58
2023-04-08T05:08:33.923Z,1023.59
2023-04-08T05:09:38.177Z,1023.63
2023-04-08T05:10:42.387Z,1023.63
2023-04-08T05:11:46.673Z,1023.66
2023-04-08T05:12:50.852Z,1023.69
2023-04-08T05:13:55.036Z,1023.69
2023-04-08T05:14:59.380Z,1023.68
2023-04-08T05:16:03.715Z,1023.69
2023-04-08T05:17:07.689Z,1023.70
2023-04-08T05:18:11.870Z,1023.71
2023-04-08T05:19:16.165Z,1023.72
2023-04-08T05:20:20.362Z,1023.75
2023-04-08T05:21:24.567Z,1023.75
2023-04-08T05:22:28.848Z,1023.78
2023-04-08T05:23:33.105Z,1023.80
2023-04-08T05:24:37.379Z,1023.81
2023-04-08T05:25:41.450Z,1023.79
2023-04-08T05:26:45.729Z,1023.79
2023-04-08T05:27:49.975Z,1023.81
2023-04-08T05:28:54.259Z,1023.83
2023-04-08T05:29:58.444Z,1023.81
2023-04-08T05:31:02.748Z,1023.85
2023-04-08T05:32:06.898Z,1023.87
2023-04-08T05:33:11.159Z,1023.87
2023-04-08T05:34:15.199Z,1023.88
2023-04-08T05:35:19.447Z,1023.91
2023-04-08T05:36:23.714Z,1023.92
2023-04-08T05:37:27.886Z,1023.94
2023-04-08T05:38:32.161Z,1023.93
2023-04-08T05:39:36.359Z,1023.97
2023-04-08T05:40:40.618Z,1023.98
2023-04-08T05:41:44.839Z,1023.98
2023-04-08T05:42:49.020Z,1023.97
2023-04-08T05:43:56.280Z,1023.99
2023-04-08T05:44:59.569Z,1024.00
2023-04-08T05:46:03.740Z,1023.99
2023-04-08T05:47:07.987Z,1024.01
2023-04-08T05:48:12.128Z,1024.02
2023-04-08T05:49:16.196Z,1024.02
2023-04-08T05:50:20.452Z,1024.02
2023-04-08T05:51:24.746Z,1024.02
2023-04-08T05:52:28.888Z,1024.01
2023-04-08T05:53:33.067Z,1024.01
2023-04-08T05:54:37.339Z,1024.01
2023-04-08T05:55:55.498Z,1024.02
2023-04-08T05:56:58.679Z,1024.03
2023-04-08T05:58:03.030Z,1024.05
2023-04-08T05:59:10.114Z,1024.03
2023-04-08T06:00:13.318Z,1024.02
2023-04-08T06:01:17.431Z,1024.03
2023-04-08T06:02:21.911Z,1024.04
2023-04-08T06:03:25.975Z,1024.03
2023-04-08T06:04:30.030Z,1024.03
2023-04-08T06:05:34.247Z,1024.04
2023-04-08T06:06:38.462Z,1024.06
2023-04-08T06:07:42.722Z,1024.08
2023-04-08T06:08:46.880Z,1024.09
2023-04-08T06:09:51.107Z,1024.10
2023-04-08T06:10:55.300Z,1024.11
2023-04-08T06:11:59.488Z,1024.11
2023-04-08T06:13:03.692Z,1024.13
2023-04-08T06:14:07.864Z,1024.16
2023-04-08T06:15:12.134Z,1024.12
2023-04-08T06:16:17.589Z,1024.14
2023-04-08T06:17:20.504Z,1024.19
2023-04-08T06:18:25.634Z,1024.18
2023-04-08T06:19:29.589Z,1024.19
2023-04-08T06:20:33.574Z,1024.17
2023-04-08T06:21:37.770Z,1024.19
2023-04-08T06:22:41.853Z,1024.22
2023-04-08T06:23:46.015Z,1024.20
2023-04-08T06:24:50.264Z,1024.21
2023-04-08T06:25:54.489Z,1024.22
2023-04-08T06:26:58.692Z,1024.23
2023-04-08T06:28:02.950Z,1024.25
2023-04-08T06:29:07.225Z,1024.26
2023-04-08T06:30:11.582Z,1024.27
2023-04-08T06:31:15.670Z,1024.29
2023-04-08T06:32:20.062Z,1024.30
2023-04-08T06:33:24.105Z,1024.32
2023-04-08T06:34:28.386Z,1024.34
2023-04-08T06:35:32.801Z,1024.37
2023-04-08T06:36:36.763Z,1024.37
2023-04-08T06:37:40.869Z,1024.39
2023-04-08T06:38:45.207Z,1024.40
2023-04-08T06:39:49.423Z,1024.41
2023-04-08T06:40:53.621Z,1024.39
2023-04-08T06:41:57.813Z,1024.41
2023-04-08T06:43:02.185Z,1024.44
2023-04-08T06:44:06.347Z,1024.47
2023-04-08T06:45:10.516Z,1024.49
2023-04-08T06:46:14.738Z,1024.50
2023-04-08T06:47:18.927Z,1024.54
2023-04-08T06:48:23.217Z,1024.52
2023-04-08T06:49:27.378Z,1024.52
2023-04-08T06:50:31.593Z,1024.53
2023-04-08T06:51:35.651Z,1024.52
2023-04-08T06:52:39.989Z,1024.51
2023-04-08T06:53:44.125Z,1024.54
2023-04-08T06:54:48.271Z,1024.57
2023-04-08T06:55:52.660Z,1024.55
2023-04-08T06:57:10.897Z,1024.58
2023-04-08T06:58:14.039Z,1024.59
2023-04-08T06:59:18.094Z,1024.60
2023-04-08T07:00:22.415Z,1024.60
2023-04-08T07:01:26.704Z,1024.61
2023-04-08T07:02:30.863Z,1024.63
2023-04-08T07:03:35.228Z,1024.60
2023-04-08T07:04:39.279Z,1024.63
2023-04-08T07:05:46.431Z,1024.64
2023-04-08T07:06:49.753Z,1024.65
2023-04-08T07:07:54.000Z,1024.66
2023-04-08T07:08:58.173Z,1024.66
2023-04-08T07:10:02.340Z,1024.66
2023-04-08T07:11:06.462Z,1024.65
2023-04-08T07:12:10.816Z,1024.65
2023-04-08T07:13:14.975Z,1024.63
2023-04-08T07:14:19.164Z,1024.65
2023-04-08T07:15:23.458Z,1024.67
2023-04-08T07:16:27.736Z,1024.69
2023-04-08T07:17:31.863Z,1024.69
2023-04-08T07:18:36.008Z,1024.72
2023-04-08T07:19:54.321Z,1024.73
2023-04-08T07:20:57.404Z,1024.72
2023-04-08T07:22:01.516Z,1024.72
2023-04-08T07:23:05.649Z,1024.75
2023-04-08T07:24:09.876Z,1024.75
2023-04-08T07:25:14.086Z,1024.75
2023-04-08T07:26:18.310Z,1024.76
2023-04-08T07:27:22.620Z,1024.77
2023-04-08T07:28:26.889Z,1024.78
2023-04-08T07:29:30.990Z,1024.82
2023-04-08T07:30:35.295Z,1024.84
2023-04-08T07:31:39.426Z,1024.86
2023-04-08T07:32:43.622Z,1024.85
2023-04-08T07:33:47.749Z,1024.86
2023-04-08T07:34:52.060Z,1024.84
2023-04-08T07:35:56.131Z,1024.82
2023-04-08T07:37:00.364Z,1024.85
2023-04-08T07:38:04.649Z,1024.84
2023-04-08T07:39:08.766Z,1024.85
2023-04-08T07:40:12.985Z,1024.84
2023-04-08T07:41:17.286Z,1024.84
2023-04-08T07:42:21.465Z,1024.86
2023-04-08T07:43:25.664Z,1024.85
2023-04-08T07:44:29.874Z,1024.87
2023-04-08T07:45:48.147Z,1024.89
2023-04-08T07:46:51.059Z,1024.89
2023-04-08T07:47:55.308Z,1024.88
2023-04-08T07:48:59.504Z,1024.90
2023-04-08T07:50:03.553Z,1024.88
2023-04-08T07:51:10.608Z,1024.88
2023-04-08T07:52:12.088Z,1024.91
2023-04-08T07:53:16.151Z,1024.89
2023-04-08T07:54:20.385Z,1024.92
2023-04-08T07:55:24.707Z,1024.88
2023-04-08T07:56:28.827Z,1024.88
2023-04-08T07:57:33.135Z,1024.88
2023-04-08T07:58:37.255Z,1024.92
2023-04-08T07:59:41.381Z,1024.92
2023-04-08T08:00:45.775Z,1024.91
2023-04-08T08:01:49.952Z,1024.92
2023-04-08T08:02:54.260Z,1024.94
2023-04-08T08:03:58.899Z,1024.94
2023-04-08T08:05:02.577Z,1024.94
2023-04-08T08:06:06.645Z,1024.96
2023-04-08T08:07:10.927Z,1024.95
2023-04-08T08:08:15.176Z,1024.98
2023-04-08T08:09:22.378Z,1024.98
2023-04-08T08:10:25.741Z,1024.98
2023-04-08T08:11:30.011Z,1024.95
2023-04-08T08:12:34.648Z,1024.94
2023-04-08T08:13:38.646Z,1024.95
2023-04-08T08:14:42.908Z,1024.97
2023-04-08T08:15:47.071Z,1024.99
2023-04-08T08:16:51.298Z,1025.00
2023-04-08T08:17:55.551Z,1025.02
2023-04-08T08:18:59.815Z,1025.02
2023-04-08T08:20:04.917Z,1025.02
2023-04-08T08:21:08.749Z,1025.02
2023-04-08T08:22:13.057Z,1025.02
2023-04-08T08:23:17.180Z,1025.03
2023-04-08T08:24:21.417Z,1025.03
2023-04-08T08:25:26.426Z,1025.03
2023-04-08T08:26:29.815Z,1025.05
2023-04-08T08:27:34.071Z,1025.07
2023-04-08T08:28:38.266Z,1025.11
2023-04-08T08:29:42.511Z,1025.12
2023-04-08T08:30:46.790Z,1025.12
2023-04-08T08:31:51.021Z,1025.13
2023-04-08T08:32:55.198Z,1025.15
2023-04-08T08:33:59.410Z,1025.16
2023-04-08T08:35:03.629Z,1025.16
2023-04-08T08:36:08.014Z,1025.17
2023-04-08T08:37:12.174Z,1025.20
2023-04-08T08:38:16.361Z,1025.23
2023-04-08T08:39:20.621Z,1025.21
2023-04-08T08:40:24.757Z,1025.22
2023-04-08T08:41:28.954Z,1025.22
2023-04-08T08:42:34.477Z,1025.23
2023-04-08T08:43:37.423Z,1025.24
2023-04-08T08:44:41.697Z,1025.27
2023-04-08T08:45:45.897Z,1025.27
2023-04-08T08:46:50.155Z,1025.25
2023-04-08T08:47:54.357Z,1025.25
2023-04-08T08:48:58.524Z,1025.25
2023-04-08T08:50:02.792Z,1025.26
2023-04-08T08:51:06.996Z,1025.25
2023-04-08T08:52:11.108Z,1025.28
2023-04-08T08:53:15.560Z,1025.29
2023-04-08T08:54:19.709Z,1025.31
2023-04-08T08:56:28.199Z,1025.32
2023-04-08T08:57:32.321Z,1025.32
2023-04-08T08:58:36.552Z,1025.29
2023-04-08T08:59:40.726Z,1025.30
2023-04-08T09:00:45.059Z,1025.31
2023-04-08T09:01:49.235Z,1025.31
2023-04-08T09:02:53.741Z,1025.30
2023-04-08T09:03:57.883Z,1025.27
2023-04-08T09:05:02.288Z,1025.29
2023-04-08T09:06:05.981Z,1025.30
2023-04-08T09:07:10.349Z,1025.28
2023-04-08T09:08:14.553Z,1025.30
2023-04-08T09:09:18.830Z,1025.34
2023-04-08T09:10:22.993Z,1025.35
2023-04-08T09:11:27.206Z,1025.37
2023-04-08T09:12:31.391Z,1025.38
2023-04-08T09:13:35.645Z,1025.38
2023-04-08T09:14:39.826Z,1025.38
2023-04-08T09:15:44.242Z,1025.39
2023-04-08T09:16:48.599Z,1025.38
2023-04-08T09:17:52.650Z,1025.40
2023-04-08T09:18:56.746Z,1025.41
2023-04-08T09:20:00.971Z,1025.42
2023-04-08T09:21:05.181Z,1025.43
2023-04-08T09:22:09.424Z,1025.45
2023-04-08T09:23:13.747Z,1025.46
2023-04-08T09:24:18.052Z,1025.44
2023-04-08T09:25:22.350Z,1025.47
2023-04-08T09:26:26.517Z,1025.46
2023-04-08T09:27:30.736Z,1025.47
2023-04-08T09:28:34.922Z,1025.46
2023-04-08T09:29:40.007Z,1025.46
2023-04-08T09:30:43.325Z,1025.45
2023-04-08T09:31:47.632Z,1025.47
2023-04-08T09:32:51.821Z,1025.45
2023-04-08T09:33:56.012Z,1025.44
2023-04-08T09:35:00.247Z,1025.47
2023-04-08T09:36:04.439Z,1025.45
2023-04-08T09:37:08.651Z,1025.44
2023-04-08T09:38:15.852Z,1025.42
2023-04-08T09:39:19.130Z,1025.41
2023-04-08T09:40:23.453Z,1025.44
2023-04-08T09:41:27.590Z,1025.45
2023-04-08T09:42:31.778Z,1025.43
2023-04-08T09:43:36.049Z,1025.43
2023-04-08T09:44:40.290Z,1025.42
2023-04-08T09:45:44.640Z,1025.43
2023-04-08T09:46:48.765Z,1025.44
2023-04-08T09:47:52.993Z,1025.43
2023-04-08T09:48:57.115Z,1025.45
2023-04-08T09:50:01.312Z,1025.46
2023-04-08T09:51:05.497Z,1025.42
2023-04-08T09:52:09.679Z,1025.44
2023-04-08T09:53:13.947Z,1025.43
2023-04-08T09:54:18.162Z,1025.47
2023-04-08T09:55:22.463Z,1025.46
2023-04-08T09:56:26.592Z,1025.47
2023-04-08T09:57:30.838Z,1025.49
2023-04-08T09:58:34.985Z,1025.51
2023-04-08T09:59:39.254Z,1025.53
2023-04-08T10:00:43.546Z,1025.58
2023-04-08T10:01:47.788Z,1025.57
2023-04-08T10:02:52.036Z,1025.56
2023-04-08T10:03:56.161Z,1025.59
2023-04-08T10:05:00.570Z,1025.59
2023-04-08T10:06:04.554Z,1025.57
2023-04-08T10:07:08.770Z,1025.55
2023-04-08T10:08:13.053Z,1025.60
2023-04-08T10:09:17.210Z,1025.63
2023-04-08T10:10:21.419Z,1025.64
2023-04-08T10:11:28.755Z,1025.68
2023-04-08T10:12:32.361Z,1025.68
2023-04-08T10:13:36.507Z,1025.66
2023-04-08T10:14:40.751Z,1025.65
2023-04-08T10:15:59.040Z,1025.66
2023-04-08T10:17:01.601Z,1025.67
2023-04-08T10:18:08.818Z,1025.66
2023-04-08T10:19:12.029Z,1025.67
2023-04-08T10:20:16.180Z,1025.66
2023-04-08T10:21:20.443Z,1025.64
2023-04-08T10:22:24.706Z,1025.65
2023-04-08T10:23:28.925Z,1025.67
2023-04-08T10:24:33.135Z,1025.70
2023-04-08T10:25:37.299Z,1025.70
2023-04-08T10:26:41.595Z,1025.70
2023-04-08T10:27:45.779Z,1025.68
2023-04-08T10:28:49.956Z,1025.69
2023-04-08T10:29:54.259Z,1025.68
2023-04-08T10:30:58.475Z,1025.65
2023-04-08T10:32:02.705Z,1025.63
2023-04-08T10:33:06.930Z,1025.62
2023-04-08T10:34:11.137Z,1025.62
2023-04-08T10:35:15.388Z,1025.62
2023-04-08T10:36:19.640Z,1025.66
2023-04-08T10:37:23.794Z,1025.63
2023-04-08T10:38:27.985Z,1025.63
2023-04-08T10:39:32.190Z,1025.61
2023-04-08T10:40:36.472Z,1025.63
2023-04-08T10:41:40.629Z,1025.62
2023-04-08T10:42:44.981Z,1025.64
2023-04-08T10:43:49.528Z,1025.63
2023-04-08T10:44:53.382Z,1025.62
2023-04-08T10:45:57.712Z,1025.62
2023-04-08T10:47:01.894Z,1025.63
2023-04-08T10:48:06.158Z,1025.63
2023-04-08T10:49:10.386Z,1025.62
2023-04-08T10:50:14.593Z,1025.66
2023-04-08T10:51:18.903Z,1025.64
2023-04-08T10:52:23.150Z,1025.65
2023-04-08T10:53:27.365Z,1025.64
2023-04-08T10:54:31.495Z,1025.64
2023-04-08T10:55:35.731Z,1025.65
2023-04-08T10:56:39.938Z,1025.63
2023-04-08T10:57:44.277Z,1025.62
2023-04-08T10:58:48.458Z,1025.65
2023-04-08T10:59:52.640Z,1025.65
2023-04-08T11:00:56.927Z,1025.62
2023-04-08T11:02:01.772Z,1025.62
2023-04-08T11:03:05.584Z,1025.59
2023-04-08T11:04:09.827Z,1025.61
2023-04-08T11:05:13.876Z,1025.60
2023-04-08T11:06:18.116Z,1025.59
2023-04-08T11:07:22.276Z,1025.57
2023-04-08T11:08:26.523Z,1025.57
2023-04-08T11:09:30.768Z,1025.58
2023-04-08T11:10:34.961Z,1025.59
2023-04-08T11:11:53.309Z,1025.59
2023-04-08T11:12:56.204Z,1025.58
2023-04-08T11:14:00.338Z,1025.58
2023-04-08T11:15:04.525Z,1025.56
2023-04-08T11:16:17.839Z,1025.58
2023-04-08T11:17:13.016Z,1025.58
2023-04-08T11:18:17.215Z,1025.57
2023-04-08T11:19:21.419Z,1025.56
2023-04-08T11:20:25.624Z,1025.56
2023-04-08T11:21:29.850Z,1025.54
2023-04-08T11:22:34.080Z,1025.53
2023-04-08T11:23:38.196Z,1025.50
2023-04-08T11:24:42.501Z,1025.48
2023-04-08T11:25:46.740Z,1025.49
2023-04-08T11:26:50.955Z,1025.47
2023-04-08T11:27:55.179Z,1025.47
2023-04-08T11:28:59.410Z,1025.48
2023-04-08T11:30:03.614Z,1025.44
2023-04-08T11:31:07.793Z,1025.45
2023-04-08T11:32:12.097Z,1025.45
2023-04-08T11:33:16.273Z,1025.47
2023-04-08T11:34:20.502Z,1025.44
2023-04-08T11:35:24.758Z,1025.46
2023-04-08T11:36:28.947Z,1025.46
2023-04-08T11:37:33.222Z,1025.44
2023-04-08T11:38:37.583Z,1025.46
2023-04-08T11:39:41.720Z,1025.46
2023-04-08T11:40:45.945Z,1025.45
2023-04-08T11:41:50.255Z,1025.44
2023-04-08T11:42:54.418Z,1025.45
2023-04-08T11:43:58.630Z,1025.46
2023-04-08T11:45:02.890Z,1025.45
2023-04-08T11:46:07.044Z,1025.45
2023-04-08T11:47:11.230Z,1025.45
2023-04-08T11:48:15.455Z,1025.45
2023-04-08T11:49:19.774Z,1025.42
2023-04-08T11:50:24.027Z,1025.42
2023-04-08T11:51:28.190Z,1025.43
2023-04-08T11:52:38.361Z,1025.44
2023-04-08T11:53:44.210Z,1025.44
2023-04-08T11:54:47.530Z,1025.43
2023-04-08T11:55:51.699Z,1025.42
2023-04-08T11:56:55.867Z,1025.43
2023-04-08T11:58:00.161Z,1025.43
2023-04-08T11:59:04.302Z,1025.42
2023-04-08T12:00:08.623Z,1025.44
2023-04-08T12:01:12.768Z,1025.45
2023-04-08T12:02:17.079Z,1025.44
2023-04-08T12:03:21.345Z,1025.46
2023-04-08T12:04:25.666Z,1025.48
2023-04-08T12:05:29.758Z,1025.48
2023-04-08T12:06:33.988Z,1025.47
2023-04-08T12:07:38.126Z,1025.50
2023-04-08T12:08:42.357Z,1025.49
2023-04-08T12:09:46.662Z,1025.50
2023-04-08T12:10:50.842Z,1025.49
2023-04-08T12:11:55.055Z,1025.50
2023-04-08T12:12:59.410Z,1025.50
2023-04-08T12:14:03.592Z,1025.49
2023-04-08T12:15:07.812Z,1025.50
2023-04-08T12:16:12.139Z,1025.50
2023-04-08T12:17:16.327Z,1025.49
2023-04-08T12:18:20.452Z,1025.51
2023-04-08T12:19:24.886Z,1025.48
2023-04-08T12:20:29.080Z,1025.48
2023-04-08T12:21:33.270Z,1025.50
2023-04-08T12:22:37.514Z,1025.49
2023-04-08T12:23:41.824Z,1025.49
2023-04-08T12:24:46.055Z,1025.50
2023-04-08T12:25:50.330Z,1025.48
2023-04-08T12:26:54.560Z,1025.49
2023-04-08T12:27:58.720Z,1025.48
2023-04-08T12:29:03.075Z,1025.47
2023-04-08T12:30:07.229Z,1025.47
2023-04-08T12:31:11.581Z,1025.46
2023-04-08T12:32:15.763Z,1025.47
2023-04-08T12:33:19.993Z,1025.49
2023-04-08T12:34:24.212Z,1025.48
2023-04-08T12:35:28.473Z,1025.48
2023-04-08T12:36:32.675Z,1025.47
2023-04-08T12:37:36.906Z,1025.45
2023-04-08T12:38:41.149Z,1025.46
2023-04-08T12:39:45.374Z,1025.46
2023-04-08T12:40:50.337Z,1025.46
2023-04-08T12:41:53.945Z,1025.47
2023-04-08T12:42:58.122Z,1025.48
2023-04-08T12:44:02.474Z,1025.46
2023-04-08T12:45:06.678Z,1025.46
2023-04-08T12:46:10.978Z,1025.47
2023-04-08T12:47:15.181Z,1025.47
2023-04-08T12:48:19.333Z,1025.48
2023-04-08T12:49:23.633Z,1025.48
2023-04-08T12:50:27.849Z,1025.48
2023-04-08T12:51:32.063Z,1025.49
2023-04-08T12:52:36.372Z,1025.48
2023-04-08T12:53:54.628Z,1025.46
2023-04-08T12:54:57.608Z,1025.47
2023-04-08T12:56:01.758Z,1025.48
2023-04-08T12:57:06.026Z,1025.48
2023-04-08T12:58:10.209Z,1025.48
2023-04-08T12:59:14.427Z,1025.50
2023-04-08T13:00:18.703Z,1025.49